LiveATC.Net - Listen to live air traffic control over the Internet!


ICAO: 6N5  IATA: 6N5   Airport: East 34th Street Heliport
City: New York   State/Province: New York
Country: United States   Continent: North America
KNYC METAR Weather: KNYC 012151Z AUTO VRB03G19KT 10SM SCT050 BKN060 07/M02 A2967 RMK AO2 SLP038 T00721017 $
6N5 Flight Activity (FlightAware)
6N5 Airport Info   (iFlightPlanner)
6N5 VFR Sectional Chart   (iFlightPlanner) 
6N5 IFR Low Chart   (iFlightPlanner) 

6N5 CTAF
Feed Status: UP   Listeners: 0
Listen in your browser - HTML5 player (in browser, HTML5)
Click here to listen with your own player (launches your MP3 player)
Archive Access: 6N5 CTAF
FacilityFrequency
East 34th Street Heliport CTAF123.075

NOTICE

Unauthorized use prohibited. See LiveATC.net Terms of Service


Airport/ARTCC Code
Frequency Search
(e.g., 124.400, 128.75)
Site-wide search
 


Browse Feeds
Top 50 Feeds
Coverage Map
Bad Weather Areas

LiveATC FAQ
Offer LiveATC feed
Contact LiveATC.net
Press Inquiries

LiveATC on iPhone
LiveATC on Android

Windows Phone
Windows 8/10

LiveATC Mobile
(Mobile browser)

ATC Audio Archives
Interesting Recordings

LiveATC Forums


Home Page
About LiveATC.net
Make a Donation
Terms of Use
Privacy Policy

Canadian Air Freqs

AIRMETs/SIGMETs

FAA Airport Status
Nat'l Airspace Status
Arrival Demand Charts


Server Software By:
Icecast.org
Liquidsoap